Time;durP1;ratioP1;P1;durP2;ratioP2;P2;SDS_P1;SDS_P2;PMS_P1;PMS_P2;Temp;Humidity;BMP_temperature;BMP_pressure;BME280_temperature;BME280_humidity;BME280_pressure;Samples;Min_cycle;Max_cycle;Signal;HPM_P1;HPM_P2
2023/05/05 00:00:59;;;;;;;15.90;5.65;;;12.30;99.90;;;;;;5005961;28;20072;-63
2023/05/05 00:03:28;;;;;;;10.65;5.80;;;12.30;99.90;;;;;;5011422;28;20049;-62
2023/05/05 00:05:56;;;;;;;10.10;4.97;;;12.20;99.90;;;;;;5024538;28;20052;-61
2023/05/05 00:08:24;;;;;;;16.95;5.53;;;12.30;99.90;;;;;;5024087;28;20057;-63
2023/05/05 00:10:52;;;;;;;15.68;6.03;;;12.30;99.90;;;;;;5010693;28;20397;-59
2023/05/05 00:13:20;;;;;;;11.70;5.43;;;12.30;99.90;;;;;;5016565;28;20058;-60
2023/05/05 00:15:49;;;;;;;12.10;6.43;;;12.30;99.90;;;;;;5013737;28;20050;-59
2023/05/05 00:18:17;;;;;;;14.00;5.70;;;12.30;99.90;;;;;;5011500;28;20045;-59
2023/05/05 00:20:46;;;;;;;9.35;5.80;;;12.30;99.90;;;;;;5024668;28;20045;-60
2023/05/05 00:23:15;;;;;;;12.75;6.30;;;12.40;99.90;;;;;;5029564;28;20456;-59
2023/05/05 00:25:43;;;;;;;14.25;6.82;;;12.40;99.90;;;;;;5028396;28;20045;-60
2023/05/05 00:28:12;;;;;;;15.27;6.10;;;12.40;99.90;;;;;;5015920;28;20053;-58
2023/05/05 00:30:40;;;;;;;13.82;5.75;;;12.40;99.90;;;;;;5017917;28;20057;-58
2023/05/05 00:33:09;;;;;;;14.70;6.60;;;12.40;99.90;;;;;;5008916;28;20517;-61
2023/05/05 00:35:37;;;;;;;14.68;6.15;;;12.40;99.90;;;;;;5021881;28;20401;-60
2023/05/05 00:38:05;;;;;;;10.85;5.78;;;12.40;99.90;;;;;;5027746;28;20042;-61
2023/05/05 00:40:33;;;;;;;12.85;5.57;;;12.40;99.90;;;;;;5015939;28;20060;-59
2023/05/05 00:43:01;;;;;;;13.48;6.03;;;12.40;99.90;;;;;;5027763;28;20408;-59
2023/05/05 00:45:29;;;;;;;15.70;6.82;;;12.40;99.90;;;;;;5009215;28;20076;-59
2023/05/05 00:47:59;;;;;;;15.40;5.97;;;12.40;99.90;;;;;;5028810;28;20041;-60
2023/05/05 00:50:29;;;;;;;14.00;5.47;;;12.40;99.90;;;;;;5029862;28;20056;-60
2023/05/05 00:53:01;;;;;;;11.45;6.07;;;12.40;99.90;;;;;;5011334;28;20048;-59
2023/05/05 00:55:30;;;;;;;12.75;6.82;;;12.30;99.90;;;;;;5029238;28;20064;-59
2023/05/05 00:57:58;;;;;;;13.45;6.15;;;12.30;99.90;;;;;;5026964;28;20037;-59
2023/05/05 01:00:27;;;;;;;15.93;6.63;;;12.30;99.90;;;;;;4996369;28;20068;-61
2023/05/05 01:02:55;;;;;;;22.05;6.90;;;12.30;99.90;;;;;;5007866;28;20049;-60
2023/05/05 01:05:26;;;;;;;13.43;6.05;;;12.30;99.90;;;;;;5004085;28;20042;-59
2023/05/05 01:08:36;;;;;;;10.20;5.68;;;12.30;99.90;;;;;;5026300;28;20049;-61
2023/05/05 01:11:19;;;;;;;11.70;5.70;;;12.30;99.90;;;;;;5006822;28;20507;-58
2023/05/05 01:13:59;;;;;;;12.63;5.85;;;12.30;99.90;;;;;;5021384;28;20041;-59
2023/05/05 01:16:29;;;;;;;;;;;12.30;99.90;;;;;;5011997;28;20061;-60
2023/05/05 01:19:13;;;;;;;8.48;5.15;;;12.30;99.90;;;;;;5012025;28;19944;-61
2023/05/05 01:21:52;;;;;;;9.38;4.93;;;12.30;99.90;;;;;;5021972;28;20056;-60
2023/05/05 01:24:28;;;;;;;9.15;5.32;;;12.30;99.90;;;;;;5022219;28;20046;-60
2023/05/05 01:27:12;;;;;;;10.32;5.85;;;12.30;99.90;;;;;;5010927;28;20037;-60
2023/05/05 01:29:40;;;;;;;8.13;5.05;;;12.30;99.90;;;;;;5012064;28;20046;-60
2023/05/05 01:32:14;;;;;;;10.40;4.85;;;12.30;99.90;;;;;;5028411;28;20037;-61
2023/05/05 01:35:01;;;;;;;9.52;4.70;;;12.30;99.90;;;;;;5029668;28;20533;-58
2023/05/05 01:37:59;;;;;;;10.05;5.63;;;12.30;99.90;;;;;;5026326;28;20592;-60
2023/05/05 01:40:30;;;;;;;12.00;5.25;;;12.30;99.90;;;;;;5011083;28;20509;-60
2023/05/05 01:43:00;;;;;;;8.85;5.82;;;12.30;99.90;;;;;;5011841;28;20522;-60
2023/05/05 01:45:32;;;;;;;13.45;4.78;;;12.30;99.90;;;;;;5025486;28;20061;-60
2023/05/05 01:48:01;;;;;;;9.50;4.80;;;12.30;99.90;;;;;;5029787;28;20045;-59
2023/05/05 01:50:30;;;;;;;10.10;5.40;;;12.30;99.90;;;;;;5017283;28;20057;-59
2023/05/05 01:53:00;;;;;;;11.30;4.55;;;12.20;99.90;;;;;;5013765;28;20052;-60
2023/05/05 01:55:29;;;;;;;10.82;4.45;;;12.20;99.90;;;;;;5013200;28;20052;-60
2023/05/05 01:58:00;;;;;;;5.18;3.95;;;12.20;99.90;;;;;;5030683;28;20045;-60
2023/05/05 02:00:29;;;;;;;8.35;3.72;;;12.20;99.90;;;;;;5025033;28;20436;-59
2023/05/05 02:02:58;;;;;;;11.88;5.20;;;12.20;99.90;;;;;;5011916;28;20042;-59
2023/05/05 02:05:26;;;;;;;7.78;4.10;;;12.20;99.90;;;;;;5029894;28;20447;-59
2023/05/05 02:07:57;;;;;;;10.82;3.58;;;12.10;99.90;;;;;;5001144;28;20038;-59
2023/05/05 02:10:27;;;;;;;7.07;3.42;;;12.10;99.90;;;;;;5017608;28;20507;-58
2023/05/05 02:12:57;;;;;;;4.05;3.00;;;12.10;99.90;;;;;;5031356;28;20049;-59
2023/05/05 02:15:27;;;;;;;5.35;2.95;;;12.10;99.90;;;;;;5007871;28;20049;-59
2023/05/05 02:17:56;;;;;;;;;;;12.10;99.90;;;;;;5016190;28;20045;-59
2023/05/05 02:20:24;;;;;;;8.70;3.35;;;12.00;99.90;;;;;;5025364;28;20261;-59
2023/05/05 02:22:52;;;;;;;6.18;3.15;;;12.10;99.90;;;;;;5029491;28;20400;-59
2023/05/05 02:25:25;;;;;;;4.78;3.42;;;12.00;99.90;;;;;;5029609;28;20060;-59
2023/05/05 02:27:56;;;;;;;4.32;2.80;;;12.00;99.90;;;;;;5012954;28;20484;-58
2023/05/05 02:30:25;;;;;;;4.88;2.78;;;12.00;99.90;;;;;;5029558;28;20052;-60
2023/05/05 02:32:59;;;;;;;5.13;2.75;;;12.00;99.90;;;;;;5028430;28;20058;-59
2023/05/05 02:35:35;;;;;;;5.78;2.63;;;12.00;99.90;;;;;;5009104;28;20057;-59
2023/05/05 02:38:13;;;;;;;3.47;2.38;;;12.00;99.90;;;;;;5005842;28;20530;-59
2023/05/05 02:40:43;;;;;;;7.60;2.92;;;11.90;99.90;;;;;;5013470;28;20058;-59
2023/05/05 02:43:16;;;;;;;4.63;2.88;;;11.90;99.90;;;;;;5029935;28;20393;-59
2023/05/05 02:45:46;;;;;;;6.32;2.70;;;11.90;99.90;;;;;;5020908;28;20050;-60
2023/05/05 02:48:15;;;;;;;5.15;2.90;;;11.90;99.90;;;;;;5019952;28;20054;-60
2023/05/05 02:50:42;;;;;;;5.95;2.88;;;12.00;99.90;;;;;;5009801;28;20052;-60
2023/05/05 02:53:25;;;;;;;6.05;3.17;;;11.90;99.90;;;;;;5000878;28;20049;-60
2023/05/05 02:56:00;;;;;;;4.70;2.65;;;11.90;99.90;;;;;;5010068;28;20054;-59
2023/05/05 02:58:36;;;;;;;;;;;11.90;99.90;;;;;;4994501;28;20055;-59
2023/05/05 03:01:34;;;;;;;5.63;2.50;;;11.90;99.90;;;;;;5004021;28;20519;-59
2023/05/05 03:04:16;;;;;;;7.60;2.60;;;12.00;99.90;;;;;;5011066;28;20046;-59
2023/05/05 03:06:53;;;;;;;3.58;2.42;;;12.00;99.90;;;;;;5000911;28;20045;-59
2023/05/05 03:09:36;;;;;;;5.00;2.70;;;12.00;99.90;;;;;;5006722;28;20049;-58
2023/05/05 03:12:11;;;;;;;7.38;3.78;;;11.90;99.90;;;;;;5033906;28;20042;-59
2023/05/05 03:15:01;;;;;;;5.00;2.50;;;12.00;99.90;;;;;;5033808;28;20085;-60
2023/05/05 03:17:31;;;;;;;4.57;3.17;;;12.00;99.90;;;;;;4996290;28;20042;-59
2023/05/05 03:20:00;;;;;;;;;;;12.00;99.90;;;;;;5034383;28;20037;-59
2023/05/05 03:22:36;;;;;;;11.73;3.72;;;12.00;99.90;;;;;;5014710;28;19921;-59
2023/05/05 03:25:07;;;;;;;7.35;3.75;;;12.00;99.90;;;;;;5014177;28;20113;-59
2023/05/05 03:27:36;;;;;;;6.32;3.88;;;12.00;99.90;;;;;;4997635;28;20405;-61
2023/05/05 03:30:06;;;;;;;5.60;4.00;;;12.00;99.90;;;;;;4999062;28;20042;-58
2023/05/05 03:32:37;;;;;;;10.35;4.30;;;12.00;99.90;;;;;;5012704;28;20065;-59
2023/05/05 03:35:08;;;;;;;7.45;4.60;;;12.00;99.90;;;;;;5012161;28;20049;-58
2023/05/05 03:37:36;;;;;;;8.75;3.80;;;11.90;99.90;;;;;;5011927;28;20053;-59
2023/05/05 03:40:08;;;;;;;10.32;4.45;;;12.00;99.90;;;;;;5014309;28;20050;-58
2023/05/05 03:42:36;;;;;;;7.88;4.80;;;12.00;99.90;;;;;;5014963;28;20069;-59
2023/05/05 03:45:05;;;;;;;8.45;4.28;;;11.90;99.90;;;;;;5014846;28;20062;-59
2023/05/05 03:47:36;;;;;;;8.65;5.28;;;11.90;99.90;;;;;;5005063;28;20049;-59
2023/05/05 03:50:08;;;;;;;9.90;5.45;;;12.00;99.90;;;;;;5012376;28;20050;-59
2023/05/05 03:52:36;;;;;;;10.15;5.78;;;11.90;99.90;;;;;;4994421;28;20050;-60
2023/05/05 03:55:05;;;;;;;8.82;5.13;;;11.90;99.90;;;;;;5011931;28;20076;-58
2023/05/05 03:57:33;;;;;;;10.45;5.00;;;11.90;99.90;;;;;;5030407;28;20049;-59
2023/05/05 04:00:01;;;;;;;16.00;5.90;;;12.00;99.90;;;;;;5015105;28;20046;-59
2023/05/05 04:02:31;;;;;;;9.95;5.22;;;12.00;99.90;;;;;;5013410;28;20050;-59
2023/05/05 04:05:00;;;;;;;7.50;4.88;;;12.00;99.90;;;;;;4999638;28;20042;-59
2023/05/05 04:07:27;;;;;;;11.43;5.15;;;12.00;99.90;;;;;;5014954;28;20061;-59
2023/05/05 04:09:55;;;;;;;13.85;6.68;;;12.00;99.90;;;;;;5014920;28;20049;-59
2023/05/05 04:12:23;;;;;;;7.97;5.18;;;12.00;99.90;;;;;;4993415;28;20051;-58
2023/05/05 04:14:50;;;;;;;12.77;5.22;;;12.00;99.90;;;;;;4993842;28;20505;-59
2023/05/05 04:17:18;;;;;;;13.43;5.55;;;12.00;99.90;;;;;;4992579;28;20046;-59
2023/05/05 04:19:46;;;;;;;11.10;5.88;;;12.00;99.90;;;;;;5009038;28;20065;-58
2023/05/05 04:22:14;;;;;;;9.80;5.60;;;12.00;99.90;;;;;;5028146;28;20049;-59
2023/05/05 04:24:42;;;;;;;13.10;5.95;;;12.00;99.90;;;;;;5012686;28;20046;-59
2023/05/05 04:27:09;;;;;;;14.15;6.32;;;12.00;99.90;;;;;;5022964;28;20053;-57
2023/05/05 04:29:37;;;;;;;14.23;6.43;;;12.00;99.90;;;;;;5011667;28;20046;-58
2023/05/05 04:32:05;;;;;;;11.25;6.70;;;12.10;99.90;;;;;;5012066;28;20049;-58
2023/05/05 04:34:33;;;;;;;9.77;6.03;;;12.00;99.90;;;;;;5014049;28;20050;-59
2023/05/05 04:37:01;;;;;;;16.48;6.63;;;12.00;99.90;;;;;;5012625;28;20061;-59
2023/05/05 04:39:30;;;;;;;8.40;5.95;;;12.00;99.90;;;;;;5012512;28;20401;-59
2023/05/05 04:41:58;;;;;;;11.38;6.53;;;12.00;99.90;;;;;;4997780;28;20061;-58
2023/05/05 04:44:25;;;;;;;9.18;6.57;;;12.00;99.90;;;;;;5006548;28;20061;-59
2023/05/05 04:46:53;;;;;;;13.52;6.40;;;12.00;99.90;;;;;;5008000;28;20050;-59
2023/05/05 04:49:21;;;;;;;13.70;6.45;;;;;;;;;;5003044;28;20430;-58
2023/05/05 04:51:49;;;;;;;15.32;7.25;;;12.00;99.90;;;;;;5004099;28;20061;-58
2023/05/05 04:54:17;;;;;;;14.80;6.20;;;12.00;99.90;;;;;;4997376;28;20505;-58
2023/05/05 04:56:44;;;;;;;13.55;6.97;;;12.00;99.90;;;;;;5008840;28;20498;-59
2023/05/05 04:59:13;;;;;;;14.82;7.35;;;12.00;99.90;;;;;;5008424;28;20042;-58
2023/05/05 05:01:41;;;;;;;12.70;7.07;;;12.00;99.90;;;;;;5008468;28;20073;-58
2023/05/05 05:04:09;;;;;;;14.57;7.70;;;11.90;99.90;;;;;;5014555;28;20520;-57
2023/05/05 05:06:37;;;;;;;16.85;6.82;;;11.90;99.90;;;;;;5006406;28;20057;-62
2023/05/05 05:09:05;;;;;;;10.10;6.78;;;11.90;99.90;;;;;;4988042;28;20042;-61
2023/05/05 05:11:33;;;;;;;15.15;7.05;;;12.00;99.90;;;;;;4994562;28;20046;-58
2023/05/05 05:14:01;;;;;;;13.05;7.85;;;12.00;99.90;;;;;;4994488;28;20049;-58
2023/05/05 05:16:29;;;;;;;14.75;8.02;;;;;;;;;;4985780;28;20686;-61
2023/05/05 05:18:57;;;;;;;15.05;7.55;;;11.90;99.90;;;;;;5017026;28;20521;-57
2023/05/05 05:21:28;;;;;;;14.02;6.97;;;11.90;99.90;;;;;;5020732;28;20053;-59
2023/05/05 05:23:56;;;;;;;15.75;8.70;;;11.90;99.90;;;;;;4998106;28;20045;-58
2023/05/05 05:26:25;;;;;;;15.40;7.20;;;12.00;99.90;;;;;;5023415;28;20496;-58
2023/05/05 05:28:53;;;;;;;18.70;7.50;;;12.00;99.90;;;;;;4993500;28;20053;-58
2023/05/05 05:31:21;;;;;;;16.27;7.20;;;12.00;99.90;;;;;;4997231;28;20050;-57
2023/05/05 05:33:49;;;;;;;12.13;6.43;;;12.00;99.90;;;;;;5027888;28;20057;-62
2023/05/05 05:36:18;;;;;;;17.10;7.53;;;12.00;99.90;;;;;;5015859;28;20041;-61
2023/05/05 05:38:45;;;;;;;17.38;7.65;;;12.10;99.90;;;;;;5000004;28;20045;-60
2023/05/05 05:41:16;;;;;;;18.33;6.78;;;12.10;99.90;;;;;;4991797;28;20060;-59
2023/05/05 05:43:47;;;;;;;14.18;7.05;;;12.10;99.90;;;;;;5024667;28;20098;-61
2023/05/05 05:46:15;;;;;;;13.75;7.25;;;12.20;99.90;;;;;;5008313;28;20493;-62
2023/05/05 05:48:44;;;;;;;16.88;7.40;;;12.20;99.90;;;;;;5006328;28;20072;-58
2023/05/05 05:51:11;;;;;;;21.60;7.72;;;12.10;99.90;;;;;;5010245;28;20056;-59
2023/05/05 05:53:39;;;;;;;16.88;8.07;;;12.20;99.90;;;;;;5016631;28;20395;-59
2023/05/05 05:56:08;;;;;;;16.23;7.75;;;12.20;99.90;;;;;;5022909;28;20049;-58
2023/05/05 05:58:36;;;;;;;14.52;7.45;;;12.30;99.90;;;;;;4990940;28;20523;-58
2023/05/05 06:01:04;;;;;;;16.33;7.13;;;12.30;99.90;;;;;;4991443;28;20397;-58
2023/05/05 06:03:35;;;;;;;13.90;7.30;;;12.20;99.90;;;;;;5002957;28;20057;-61
2023/05/05 06:06:06;;;;;;;18.38;8.15;;;12.20;99.90;;;;;;5026528;28;20057;-61
2023/05/05 06:08:34;;;;;;;18.02;6.93;;;12.30;99.90;;;;;;5010447;28;20049;-62
2023/05/05 06:11:09;;;;;;;14.70;7.05;;;12.30;99.90;;;;;;5006965;28;20048;-61
2023/05/05 06:13:37;;;;;;;17.45;6.97;;;12.30;99.90;;;;;;5008312;28;20046;-63
2023/05/05 06:16:06;;;;;;;16.17;6.82;;;12.20;99.90;;;;;;5004688;28;20548;-59
2023/05/05 06:18:34;;;;;;;17.98;7.30;;;12.30;99.90;;;;;;4995378;28;20527;-59
2023/05/05 06:21:02;;;;;;;17.38;8.10;;;12.30;99.90;;;;;;5009169;28;20428;-59
2023/05/05 06:23:31;;;;;;;15.20;7.15;;;12.40;99.90;;;;;;5006847;28;20416;-60
2023/05/05 06:26:10;;;;;;;13.10;6.53;;;12.40;99.90;;;;;;5023859;28;20046;-59
2023/05/05 06:28:38;;;;;;;15.10;6.05;;;12.50;99.90;;;;;;5027450;28;20045;-61
2023/05/05 06:31:06;;;;;;;15.57;6.47;;;;;;;;;;5026911;28;20056;-59
2023/05/05 06:33:33;;;;;;;15.07;6.68;;;12.60;99.90;;;;;;5006275;28;20045;-60
2023/05/05 06:36:02;;;;;;;20.30;7.07;;;12.60;99.90;;;;;;5026858;28;20046;-59
2023/05/05 06:38:29;;;;;;;17.88;6.57;;;12.70;99.90;;;;;;4998699;28;20058;-60
2023/05/05 06:40:57;;;;;;;13.88;6.40;;;12.60;99.90;;;;;;5019122;28;20500;-60
2023/05/05 06:43:25;;;;;;;13.10;6.10;;;12.80;99.90;;;;;;5005497;28;20056;-59
2023/05/05 06:45:57;;;;;;;12.90;6.20;;;12.80;99.90;;;;;;5022044;28;20041;-60
2023/05/05 06:48:25;;;;;;;11.90;5.53;;;12.80;99.90;;;;;;5017372;28;20527;-60
2023/05/05 06:50:52;;;;;;;10.90;5.28;;;12.80;99.90;;;;;;5008547;28;20420;-59
2023/05/05 06:53:20;;;;;;;11.18;5.53;;;12.80;99.90;;;;;;5022893;28;20048;-59
2023/05/05 06:55:48;;;;;;;10.25;5.03;;;12.90;99.90;;;;;;5027736;28;20054;-60
2023/05/05 06:58:15;;;;;;;10.68;5.38;;;13.00;99.90;;;;;;5016297;28;20402;-60
2023/05/05 07:00:43;;;;;;;6.78;4.53;;;12.90;99.90;;;;;;5007557;28;20046;-59
2023/05/05 07:03:11;;;;;;;10.70;4.50;;;13.10;99.90;;;;;;5013860;28;20389;-61
2023/05/05 07:05:38;;;;;;;9.45;5.03;;;13.10;99.90;;;;;;5021096;28;20497;-61
2023/05/05 07:08:07;;;;;;;15.15;5.63;;;13.10;99.90;;;;;;5026055;28;20518;-60
2023/05/05 07:10:35;;;;;;;9.88;5.15;;;13.10;99.90;;;;;;5026803;28;20061;-62
2023/05/05 07:13:03;;;;;;;9.23;4.55;;;13.10;99.90;;;;;;5024166;28;20045;-60
2023/05/05 07:15:31;;;;;;;9.25;5.15;;;13.30;99.90;;;;;;5006492;28;20064;-59
2023/05/05 07:17:59;;;;;;;9.05;4.90;;;13.30;99.90;;;;;;5019512;28;20060;-62
2023/05/05 07:20:27;;;;;;;11.38;5.47;;;13.40;99.90;;;;;;5023639;28;20060;-60
2023/05/05 07:22:58;;;;;;;10.02;4.72;;;13.30;99.90;;;;;;5026311;28;20057;-60
2023/05/05 07:25:25;;;;;;;10.85;4.72;;;13.60;99.90;;;;;;5026926;28;20052;-60
2023/05/05 07:27:53;;;;;;;8.38;4.45;;;13.40;99.90;;;;;;5027185;28;20520;-60
2023/05/05 07:30:21;;;;;;;12.77;4.65;;;13.40;99.90;;;;;;5026517;28;20389;-61
2023/05/05 07:32:49;;;;;;;7.88;4.35;;;13.40;99.90;;;;;;5027072;28;20060;-60
2023/05/05 07:35:17;;;;;;;10.73;4.10;;;13.40;99.90;;;;;;5024515;28;20037;-60
2023/05/05 07:37:45;;;;;;;9.02;3.65;;;13.40;99.90;;;;;;5022521;28;20068;-60
2023/05/05 07:40:13;;;;;;;10.55;3.97;;;13.40;99.90;;;;;;5011778;28;20040;-63
2023/05/05 07:42:40;;;;;;;10.30;4.47;;;13.40;99.90;;;;;;4994390;28;20057;-61
2023/05/05 07:45:08;;;;;;;8.13;4.05;;;13.40;99.90;;;;;;5022171;28;20425;-60
2023/05/05 07:47:36;;;;;;;6.05;4.00;;;13.40;99.90;;;;;;5010065;28;20084;-62
2023/05/05 07:50:04;;;;;;;7.03;3.92;;;13.50;99.90;;;;;;5024760;28;20084;-61
2023/05/05 07:52:32;;;;;;;8.68;3.90;;;13.50;99.90;;;;;;5024455;28;20037;-59
2023/05/05 07:55:16;;;;;;;8.48;3.90;;;13.60;99.90;;;;;;5029286;28;20053;-60
2023/05/05 07:57:43;;;;;;;7.63;3.83;;;13.60;99.90;;;;;;5023513;28;20046;-63
2023/05/05 08:00:12;;;;;;;8.60;3.75;;;13.70;99.90;;;;;;5011393;28;20050;-59
2023/05/05 08:02:40;;;;;;;7.35;3.67;;;13.80;99.90;;;;;;5004872;28;20058;-62
2023/05/05 08:05:08;;;;;;;7.57;3.03;;;13.90;99.90;;;;;;5028314;28;20045;-61
2023/05/05 08:07:39;;;;;;;9.30;3.63;;;14.00;99.90;;;;;;4998053;28;20049;-62
2023/05/05 08:10:10;;;;;;;7.35;3.63;;;14.10;99.90;;;;;;5027536;28;20046;-62
2023/05/05 08:12:38;;;;;;;7.68;3.67;;;14.10;99.90;;;;;;5029753;28;20057;-63
2023/05/05 08:15:06;;;;;;;8.95;3.35;;;14.10;99.90;;;;;;5027141;28;20045;-61
2023/05/05 08:17:45;;;;;;;6.53;3.17;;;14.20;99.90;;;;;;5024791;28;20046;-60
2023/05/05 08:20:14;;;;;;;6.50;3.08;;;14.20;99.90;;;;;;5019605;28;20045;-60
2023/05/05 08:22:42;;;;;;;5.50;2.70;;;14.30;99.90;;;;;;5024136;28;20054;-60
2023/05/05 08:25:11;;;;;;;5.75;3.58;;;14.40;99.90;;;;;;5016804;28;20042;-61
2023/05/05 08:27:41;;;;;;;6.85;3.28;;;14.40;99.90;;;;;;5028318;28;20057;-62
2023/05/05 08:30:09;;;;;;;6.38;3.38;;;14.60;99.90;;;;;;5028527;28;20037;-62
2023/05/05 08:32:40;;;;;;;10.13;3.78;;;14.70;99.90;;;;;;5028733;28;20053;-61
2023/05/05 08:35:08;;;;;;;6.78;4.07;;;14.80;99.90;;;;;;5025610;28;20053;-61
2023/05/05 08:37:37;;;;;;;6.60;3.17;;;14.90;99.90;;;;;;5023568;28;20049;-60
2023/05/05 08:40:05;;;;;;;8.93;3.47;;;14.90;99.90;;;;;;5025673;28;20042;-62
2023/05/05 08:42:34;;;;;;;7.60;3.80;;;14.90;99.90;;;;;;5014246;28;20476;-60
2023/05/05 08:45:09;;;;;;;7.38;4.15;;;14.80;99.90;;;;;;5027005;28;20041;-60
2023/05/05 08:47:38;;;;;;;9.30;3.55;;;14.80;99.90;;;;;;5022663;28;20048;-60
2023/05/05 08:50:09;;;;;;;9.00;3.40;;;14.90;99.90;;;;;;5019070;28;20093;-61
2023/05/05 08:52:44;;;;;;;9.13;3.60;;;14.80;99.90;;;;;;5027596;28;20060;-62
2023/05/05 08:55:25;;;;;;;9.98;3.45;;;14.70;99.90;;;;;;5024179;28;20049;-60
2023/05/05 08:57:55;;;;;;;;;;;14.80;99.90;;;;;;5019022;28;20061;-62
2023/05/05 09:00:25;;;;;;;9.25;3.28;;;14.80;99.90;;;;;;5025056;28;20200;-60
2023/05/05 09:02:58;;;;;;;8.90;4.15;;;15.00;99.90;;;;;;5025263;28;20548;-61
2023/05/05 09:05:27;;;;;;;8.75;3.25;;;15.00;99.90;;;;;;5022173;28;20034;-59
2023/05/05 09:07:54;;;;;;;10.63;3.00;;;15.10;99.90;;;;;;5027659;28;20052;-62
2023/05/05 09:10:24;;;;;;;11.38;3.33;;;15.20;99.90;;;;;;5027968;28;20064;-64
2023/05/05 09:12:52;;;;;;;6.35;2.83;;;15.30;99.90;;;;;;5028933;28;20049;-63
2023/05/05 09:15:20;;;;;;;7.78;3.15;;;;;;;;;;5026650;28;20045;-63
2023/05/05 09:17:47;;;;;;;4.55;2.30;;;15.30;99.90;;;;;;5022007;28;20060;-60
2023/05/05 09:20:16;;;;;;;8.55;3.08;;;15.30;99.90;;;;;;5014993;28;20046;-60
2023/05/05 09:22:45;;;;;;;6.95;2.42;;;15.40;99.90;;;;;;5029409;28;20049;-64
2023/05/05 09:25:15;;;;;;;7.30;2.50;;;15.40;99.90;;;;;;5023228;28;20042;-62
2023/05/05 09:27:45;;;;;;;6.90;2.78;;;15.50;99.90;;;;;;5024598;28;20060;-64
2023/05/05 09:30:31;;;;;;;8.55;2.60;;;15.60;99.90;;;;;;5022774;28;20041;-64
2023/05/05 09:33:01;;;;;;;7.25;3.10;;;15.60;99.90;;;;;;5024608;28;20049;-64
2023/05/05 09:35:46;;;;;;;3.97;2.45;;;15.90;99.90;;;;;;5026613;28;20041;-64
2023/05/05 09:38:14;;;;;;;8.05;2.25;;;15.90;99.90;;;;;;5026641;28;20056;-64
2023/05/05 09:40:52;;;;;;;6.93;2.03;;;16.00;99.90;;;;;;5026115;28;20060;-62
2023/05/05 09:43:22;;;;;;;7.82;2.08;;;16.10;99.90;;;;;;5025120;28;20053;-62
2023/05/05 09:45:50;;;;;;;5.60;2.00;;;16.30;99.90;;;;;;5028394;28;20048;-62
2023/05/05 09:48:25;;;;;;;7.13;2.42;;;16.30;99.90;;;;;;5018065;28;20045;-61
2023/05/05 09:50:54;;;;;;;8.18;1.55;;;16.50;99.90;;;;;;5004992;28;20042;-63
2023/05/05 09:53:23;;;;;;;4.03;1.80;;;16.50;99.90;;;;;;5009238;28;20049;-62
2023/05/05 09:55:53;;;;;;;8.03;1.53;;;16.50;99.90;;;;;;5027006;28;20412;-62
2023/05/05 09:58:23;;;;;;;4.47;1.77;;;16.50;99.90;;;;;;5007907;28;20306;-63
2023/05/05 10:00:52;;;;;;;7.15;1.92;;;16.50;99.90;;;;;;5002610;28;20259;-60
2023/05/05 10:03:20;;;;;;;9.63;1.27;;;16.60;99.90;;;;;;5020253;28;20113;-61
2023/05/05 10:05:50;;;;;;;5.68;1.30;;;16.70;99.90;;;;;;5021866;28;20405;-61
2023/05/05 10:08:20;;;;;;;5.82;1.60;;;16.90;99.90;;;;;;5017725;28;20327;-61
2023/05/05 10:10:53;;;;;;;3.88;1.40;;;16.90;99.90;;;;;;5015442;28;20041;-61
2023/05/05 10:13:22;;;;;;;3.17;1.52;;;17.00;99.90;;;;;;5018028;28;20539;-63
2023/05/05 10:15:53;;;;;;;6.83;2.07;;;17.00;99.90;;;;;;5022391;28;20052;-63
2023/05/05 10:18:26;;;;;;;4.03;1.60;;;17.00;99.90;;;;;;5021917;28;20299;-63
2023/05/05 10:20:58;;;;;;;5.47;1.10;;;17.00;99.90;;;;;;5023359;28;20037;-62
2023/05/05 10:23:40;;;;;;;3.95;1.13;;;17.00;99.90;;;;;;5022230;28;20049;-61
2023/05/05 10:26:12;;;;;;;4.75;0.82;;;16.90;99.90;;;;;;5027112;28;20044;-60
2023/05/05 10:28:50;;;;;;;6.00;0.98;;;16.80;99.90;;;;;;5025297;28;20475;-62
2023/05/05 10:31:44;;;;;;;4.65;2.20;;;16.80;99.90;;;;;;5009783;28;20414;-60
2023/05/05 10:34:22;;;;;;;2.85;0.90;;;16.80;99.90;;;;;;5026922;28;20053;-61
2023/05/05 10:36:50;;;;;;;3.88;1.10;;;16.90;99.90;;;;;;5023336;28;20492;-61
2023/05/05 10:39:19;;;;;;;4.35;1.10;;;17.10;99.90;;;;;;5017789;28;20257;-63
2023/05/05 10:41:48;;;;;;;4.28;1.00;;;17.50;99.90;;;;;;5027565;28;20046;-62
2023/05/05 10:44:16;;;;;;;6.20;1.80;;;17.40;99.90;;;;;;5023926;28;20071;-61
2023/05/05 10:46:45;;;;;;;8.45;1.75;;;17.60;99.90;;;;;;5008163;28;20484;-62
2023/05/05 10:49:27;;;;;;;3.33;1.30;;;17.80;99.90;;;;;;5019914;28;20042;-62
2023/05/05 10:52:14;;;;;;;11.32;2.03;;;17.90;99.90;;;;;;5020365;28;20045;-64
2023/05/05 10:54:44;;;;;;;8.20;1.50;;;18.10;99.90;;;;;;5012520;28;20041;-65
2023/05/05 10:57:15;;;;;;;5.53;1.17;;;18.30;99.90;;;;;;5023778;28;20041;-62
2023/05/05 10:59:43;;;;;;;6.35;1.42;;;18.50;99.90;;;;;;5026684;28;20570;-64
2023/05/05 11:02:18;;;;;;;3.55;1.13;;;18.50;99.90;;;;;;5017485;28;20046;-65
2023/05/05 11:05:21;;;;;;;8.70;1.70;;;18.60;99.90;;;;;;5025695;28;20049;-61
2023/05/05 11:07:50;;;;;;;4.85;1.60;;;18.80;99.90;;;;;;5023073;28;20424;-63
2023/05/05 11:10:19;;;;;;;8.35;1.33;;;19.00;99.90;;;;;;5027192;28;20042;-62
2023/05/05 11:12:54;;;;;;;5.82;1.38;;;18.90;99.90;;;;;;5026234;28;20045;-63
2023/05/05 11:15:28;;;;;;;6.32;0.95;;;18.80;99.90;;;;;;5025466;28;20045;-63
2023/05/05 11:17:57;;;;;;;2.55;1.13;;;18.70;99.90;;;;;;5023011;28;20045;-64
2023/05/05 11:20:44;;;;;;;8.82;2.35;;;18.70;99.90;;;;;;5020903;28;20132;-62
2023/05/05 11:23:11;;;;;;;11.23;2.33;;;18.70;99.90;;;;;;5025505;28;20060;-62
2023/05/05 11:25:43;;;;;;;10.82;2.08;;;18.80;99.90;;;;;;5014575;28;20054;-64
2023/05/05 11:28:18;;;;;;;4.55;1.10;;;19.00;99.90;;;;;;5006213;28;20045;-63
2023/05/05 11:30:55;;;;;;;4.05;1.08;;;19.20;99.90;;;;;;5029360;28;20073;-62
2023/05/05 11:33:37;;;;;;;4.30;0.98;;;19.60;99.90;;;;;;5008097;28;20049;-63
2023/05/05 11:36:07;;;;;;;3.88;1.10;;;19.90;99.90;;;;;;5024095;28;20046;-63
2023/05/05 11:39:02;;;;;;;3.53;0.85;;;20.20;99.90;;;;;;5029306;28;20046;-62
2023/05/05 11:41:33;;;;;;;4.40;0.98;;;20.30;99.90;;;;;;5003728;28;20045;-62
2023/05/05 11:44:17;;;;;;;2.42;0.80;;;20.40;99.90;;;;;;5030444;28;20049;-62
2023/05/05 11:46:51;;;;;;;2.22;0.75;;;20.40;99.90;;;;;;5031145;28;20056;-63
2023/05/05 11:49:45;;;;;;;2.53;0.93;;;20.60;99.90;;;;;;5030803;28;20053;-63
2023/05/05 11:52:13;;;;;;;7.15;1.05;;;20.90;99.90;;;;;;5015687;28;20065;-61
2023/05/05 11:54:49;;;;;;;7.97;0.85;;;21.00;99.90;;;;;;5024586;28;20057;-63
2023/05/05 11:57:21;;;;;;;4.82;0.88;;;21.10;99.90;;;;;;5011851;28;20054;-62
2023/05/05 11:59:56;;;;;;;2.40;0.60;;;21.30;99.90;;;;;;5014930;28;20582;-62
2023/05/05 12:02:26;;;;;;;4.40;1.70;;;21.70;99.90;;;;;;5013481;28;20034;-63
2023/05/05 12:04:55;;;;;;;5.30;1.30;;;21.90;99.90;;;;;;5022663;28;20046;-61
2023/05/05 12:07:25;;;;;;;7.55;1.15;;;21.90;99.90;;;;;;5030608;28;20049;-62
2023/05/05 12:09:53;;;;;;;9.10;1.10;;;22.10;99.90;;;;;;5030754;28;20046;-63
2023/05/05 12:12:38;;;;;;;10.25;1.45;;;22.30;99.90;;;;;;5030619;28;20053;-63
2023/05/05 12:15:08;;;;;;;6.13;1.23;;;22.50;99.90;;;;;;5030175;28;20144;-63
2023/05/05 12:17:41;;;;;;;14.23;1.38;;;22.70;99.90;;;;;;5022805;28;20045;-63
2023/05/05 12:20:10;;;;;;;3.65;0.75;;;22.80;99.00;;;;;;5026694;28;20045;-63
2023/05/05 12:22:42;;;;;;;6.13;1.10;;;22.80;99.60;;;;;;5010855;28;20064;-63
2023/05/05 12:25:10;;;;;;;8.82;1.23;;;;;;;;;;5027788;28;20484;-64
2023/05/05 12:27:38;;;;;;;3.90;0.90;;;23.30;96.40;;;;;;5020915;28;20042;-64
2023/05/05 12:30:12;;;;;;;6.18;0.93;;;23.70;97.40;;;;;;5023940;28;20049;-63
2023/05/05 12:32:40;;;;;;;7.40;1.20;;;23.90;95.80;;;;;;5028453;28;20046;-62
2023/05/05 12:35:09;;;;;;;12.25;1.35;;;24.10;95.60;;;;;;5026811;28;20041;-63
2023/05/05 12:37:37;;;;;;;5.18;0.98;;;24.00;95.20;;;;;;5028026;28;20044;-67
2023/05/05 12:40:07;;;;;;;2.10;0.70;;;24.00;95.50;;;;;;5027881;28;20060;-66
2023/05/05 12:42:38;;;;;;;4.63;1.15;;;24.00;95.90;;;;;;5009967;28;20046;-62
2023/05/05 12:45:14;;;;;;;5.13;0.95;;;24.10;95.80;;;;;;5029193;28;20056;-63
2023/05/05 12:47:43;;;;;;;3.92;1.08;;;24.00;95.70;;;;;;5025160;28;20041;-62
2023/05/05 12:50:11;;;;;;;2.28;0.88;;;23.70;95.40;;;;;;5010031;28;20058;-64
2023/05/05 12:52:41;;;;;;;4.18;0.77;;;23.50;96.20;;;;;;5007417;28;20041;-63
2023/05/05 12:55:10;;;;;;;1.58;0.60;;;23.20;94.70;;;;;;5013679;28;20049;-63
2023/05/05 12:57:38;;;;;;;13.88;1.35;;;23.20;94.80;;;;;;5014917;28;20065;-64
2023/05/05 13:00:14;;;;;;;1.88;0.57;;;23.10;94.50;;;;;;5011096;28;20045;-63
2023/05/05 13:02:42;;;;;;;2.53;0.70;;;22.80;94.10;;;;;;5011337;28;20501;-63
2023/05/05 13:05:10;;;;;;;1.70;0.70;;;22.30;95.40;;;;;;5010423;28;20409;-64